createdAt,value
2024-01-19T00:01:41.030Z,12.90
2024-01-19T00:06:42.354Z,11.20
2024-01-19T00:11:43.703Z,10.23
2024-01-19T00:16:45.119Z,9.77
2024-01-19T00:21:48.726Z,9.52
2024-01-19T00:26:50.305Z,9.20
2024-01-19T00:31:51.749Z,12.32
2024-01-19T00:36:53.170Z,12.20
2024-01-19T00:41:54.605Z,12.73
2024-01-19T00:46:55.984Z,13.00
2024-01-19T00:51:57.293Z,12.70
2024-01-19T00:56:58.746Z,12.55
2024-01-19T01:02:00.061Z,12.88
2024-01-19T01:07:01.400Z,11.93
2024-01-19T01:12:03.416Z,10.15
2024-01-19T01:17:04.859Z,10.00
2024-01-19T01:22:10.609Z,11.70
2024-01-19T01:27:11.934Z,11.25
2024-01-19T01:32:13.455Z,11.23
2024-01-19T01:37:14.894Z,11.00
2024-01-19T01:42:16.273Z,12.23
2024-01-19T01:47:17.845Z,11.77
2024-01-19T01:52:19.457Z,12.35
2024-01-19T01:57:22.054Z,13.35
2024-01-19T02:02:23.488Z,11.40
2024-01-19T02:07:25.125Z,11.67
2024-01-19T02:12:26.837Z,11.02
2024-01-19T02:17:28.287Z,11.30
2024-01-19T02:22:30.431Z,10.90
2024-01-19T02:27:33.187Z,11.15
2024-01-19T02:32:34.573Z,11.20
2024-01-19T02:37:36.032Z,10.55
2024-01-19T02:42:37.461Z,10.68
2024-01-19T02:47:38.848Z,11.43
2024-01-19T02:52:40.300Z,11.15
2024-01-19T02:57:41.621Z,11.63
2024-01-19T03:02:43.055Z,12.95
2024-01-19T03:07:44.356Z,12.88
2024-01-19T03:12:45.762Z,11.07
2024-01-19T03:17:47.205Z,11.32
2024-01-19T03:22:48.551Z,11.90
2024-01-19T03:27:49.911Z,9.85
2024-01-19T03:32:51.429Z,9.65
2024-01-19T03:37:53.221Z,9.30
2024-01-19T03:42:54.531Z,10.30
2024-01-19T03:47:55.981Z,9.93
2024-01-19T03:52:57.332Z,10.55
2024-01-19T03:57:58.645Z,10.73
2024-01-19T04:03:00.126Z,10.77
2024-01-19T04:08:01.614Z,10.50
2024-01-19T04:13:03.052Z,10.60
2024-01-19T04:18:05.511Z,9.85
2024-01-19T04:23:07.082Z,9.90
2024-01-19T04:28:08.449Z,9.02
2024-01-19T04:33:09.855Z,10.30
2024-01-19T04:38:11.363Z,10.97
2024-01-19T04:43:12.688Z,9.70
2024-01-19T04:48:14.151Z,9.60
2024-01-19T04:53:15.590Z,9.38
2024-01-19T04:58:17.118Z,9.05
2024-01-19T05:03:18.577Z,10.07
2024-01-19T05:08:19.990Z,10.88
2024-01-19T05:13:21.335Z,11.40
2024-01-19T05:18:22.810Z,9.52
2024-01-19T05:23:24.256Z,11.07
2024-01-19T05:28:25.613Z,14.73
2024-01-19T05:33:27.047Z,12.45
2024-01-19T05:38:28.651Z,10.82
2024-01-19T05:43:30.408Z,11.25
2024-01-19T05:48:31.883Z,10.07
2024-01-19T05:53:33.309Z,11.50
2024-01-19T05:58:34.623Z,9.93
2024-01-19T06:03:36.517Z,10.18
2024-01-19T06:08:37.997Z,9.98
2024-01-19T06:13:39.978Z,9.45
2024-01-19T06:18:42.772Z,10.13
2024-01-19T06:23:44.248Z,10.13
2024-01-19T06:28:45.658Z,10.10
2024-01-19T06:33:48.145Z,10.23
2024-01-19T06:38:49.720Z,11.85
2024-01-19T06:43:51.047Z,10.73
2024-01-19T06:48:53.081Z,13.02
2024-01-19T06:53:54.572Z,12.02
2024-01-19T06:58:56.355Z,12.27
2024-01-19T07:03:57.965Z,12.25
2024-01-19T07:08:59.381Z,11.87
2024-01-19T07:14:00.718Z,16.65
2024-01-19T07:19:02.280Z,14.88
2024-01-19T07:24:03.744Z,11.98
2024-01-19T07:29:07.477Z,15.05
2024-01-19T07:34:08.992Z,13.20
2024-01-19T07:39:12.667Z,11.77
2024-01-19T07:44:14.001Z,12.88
2024-01-19T07:49:21.849Z,12.98
2024-01-19T07:54:23.312Z,13.27
2024-01-19T07:59:24.766Z,13.60
2024-01-19T08:04:26.441Z,14.52
2024-01-19T08:09:28.632Z,23.42
2024-01-19T08:14:31.653Z,16.85
2024-01-19T08:19:33.037Z,14.95
2024-01-19T08:24:36.727Z,13.47
2024-01-19T08:29:38.222Z,13.93
2024-01-19T08:34:39.637Z,13.63
2024-01-19T08:39:41.085Z,14.63
2024-01-19T08:44:45.839Z,14.95
2024-01-19T08:49:47.288Z,15.37
2024-01-19T08:54:48.625Z,15.32
2024-01-19T08:59:50.197Z,17.10
2024-01-19T09:04:52.131Z,15.68
2024-01-19T09:09:53.567Z,17.95
2024-01-19T09:14:55.265Z,17.73
2024-01-19T09:19:56.663Z,16.90
2024-01-19T09:24:58.034Z,15.93
2024-01-19T09:29:59.500Z,19.45
2024-01-19T09:35:00.963Z,17.77
2024-01-19T09:40:02.526Z,19.40
2024-01-19T09:45:06.268Z,18.50
2024-01-19T09:50:09.783Z,19.23
2024-01-19T09:55:12.302Z,16.45
2024-01-19T10:00:14.977Z,16.50
2024-01-19T10:05:17.362Z,18.30
2024-01-19T10:10:18.856Z,18.13
2024-01-19T10:15:20.477Z,16.85
2024-01-19T10:20:21.824Z,15.40
2024-01-19T10:25:23.389Z,13.18
2024-01-19T10:30:30.190Z,12.33
2024-01-19T10:35:32.106Z,11.70
2024-01-19T10:40:34.082Z,11.02
2024-01-19T10:45:39.733Z,10.48
2024-01-19T10:50:41.288Z,10.57
2024-01-19T10:55:47.670Z,9.57
2024-01-19T11:00:49.072Z,11.02
2024-01-19T11:05:51.279Z,10.13
2024-01-19T11:10:52.671Z,9.95
2024-01-19T11:15:56.841Z,10.50
2024-01-19T11:20:58.922Z,10.40
2024-01-19T11:26:04.779Z,10.82
2024-01-19T11:31:16.169Z,11.18
2024-01-19T11:36:37.645Z,10.00
2024-01-19T11:41:39.076Z,10.95
2024-01-19T11:46:47.433Z,12.00
2024-01-19T11:51:49.333Z,10.65
2024-01-19T11:56:50.711Z,10.65
2024-01-19T12:01:52.062Z,11.13
2024-01-19T12:07:04.523Z,10.55
2024-01-19T12:12:07.801Z,10.50
2024-01-19T12:17:09.281Z,10.35
2024-01-19T12:22:10.652Z,10.45
2024-01-19T12:27:17.347Z,11.23
2024-01-19T12:32:19.420Z,10.63
2024-01-19T12:37:20.869Z,10.50
2024-01-19T12:42:25.579Z,12.45
2024-01-19T12:47:26.972Z,11.18
2024-01-19T12:52:29.181Z,12.50
2024-01-19T12:57:31.212Z,10.93
2024-01-19T13:02:32.663Z,10.13
2024-01-19T13:07:34.376Z,12.23
2024-01-19T13:12:36.007Z,11.23
2024-01-19T13:17:39.829Z,11.32
2024-01-19T13:22:41.415Z,10.82
2024-01-19T13:27:43.035Z,10.90
2024-01-19T13:32:44.432Z,9.88
2024-01-19T13:37:46.070Z,9.38
2024-01-19T13:42:47.584Z,11.00
2024-01-19T13:47:48.991Z,11.18
2024-01-19T13:52:50.425Z,9.90
2024-01-19T13:57:51.805Z,11.40
2024-01-19T14:02:53.379Z,10.80
2024-01-19T14:07:57.258Z,11.60
2024-01-19T14:13:00.810Z,11.60
2024-01-19T14:18:03.316Z,11.53
2024-01-19T14:23:05.176Z,10.73
2024-01-19T14:28:07.365Z,10.75
2024-01-19T14:33:09.141Z,9.98
2024-01-19T14:38:10.728Z,10.18
2024-01-19T14:43:12.676Z,10.97
2024-01-19T14:48:14.948Z,10.55
2024-01-19T14:53:16.610Z,11.32
2024-01-19T14:58:18.523Z,10.27
2024-01-19T15:03:19.810Z,11.68
2024-01-19T15:08:21.203Z,10.77
2024-01-19T15:13:22.544Z,12.73
2024-01-19T15:18:26.370Z,12.18
2024-01-19T15:23:29.016Z,10.85
2024-01-19T15:28:30.613Z,12.48
2024-01-19T15:33:32.083Z,14.40
2024-01-19T15:38:33.544Z,15.93
2024-01-19T15:43:34.905Z,13.70
2024-01-19T15:48:39.136Z,12.90
2024-01-19T15:53:44.520Z,14.02
2024-01-19T15:58:45.979Z,12.07
2024-01-19T16:03:47.990Z,11.80
2024-01-19T16:08:49.326Z,11.48
2024-01-19T16:13:50.653Z,10.88
2024-01-19T16:18:52.584Z,11.38
2024-01-19T16:23:54.053Z,10.47
2024-01-19T16:28:55.726Z,11.27
2024-01-19T16:33:57.176Z,12.20
2024-01-19T16:38:59.215Z,14.43
2024-01-19T16:44:04.368Z,15.43
2024-01-19T16:49:06.552Z,16.40
2024-01-19T16:54:08.614Z,15.45
2024-01-19T16:59:10.178Z,16.25
2024-01-19T17:04:12.530Z,19.60
2024-01-19T17:09:13.895Z,22.45
2024-01-19T17:14:15.380Z,17.50
2024-01-19T17:19:18.766Z,16.83
2024-01-19T17:24:20.179Z,14.90
2024-01-19T17:29:21.701Z,14.07
2024-01-19T17:34:23.158Z,13.35
2024-01-19T17:39:27.438Z,15.07
2024-01-19T17:44:30.693Z,14.75
2024-01-19T17:49:32.136Z,16.55
2024-01-19T17:54:33.801Z,18.42
2024-01-19T17:59:36.018Z,25.83
2024-01-19T18:04:37.430Z,29.17
2024-01-19T18:09:38.875Z,20.27
2024-01-19T18:14:40.545Z,18.70
2024-01-19T18:19:42.251Z,19.88
2024-01-19T18:24:43.863Z,23.35
2024-01-19T18:29:46.609Z,25.77
2024-01-19T18:34:51.333Z,29.38
2024-01-19T18:39:52.691Z,43.28
2024-01-19T18:44:54.162Z,23.90
2024-01-19T18:49:55.530Z,29.35
2024-01-19T18:54:57.017Z,21.67
2024-01-19T18:59:58.586Z,25.27
2024-01-19T19:04:59.924Z,23.58
2024-01-19T19:10:01.483Z,20.35
2024-01-19T19:15:04.341Z,21.83
2024-01-19T19:20:09.160Z,20.73
2024-01-19T19:25:10.838Z,20.30
2024-01-19T19:30:12.391Z,27.38
2024-01-19T19:35:13.964Z,23.38
2024-01-19T19:40:15.347Z,19.50
2024-01-19T19:45:16.672Z,22.30
2024-01-19T19:50:18.121Z,16.02
2024-01-19T19:55:19.467Z,17.67
2024-01-19T20:00:20.751Z,18.30
2024-01-19T20:05:22.222Z,19.15
2024-01-19T20:10:23.645Z,15.07
2024-01-19T20:15:25.061Z,20.52
2024-01-19T20:20:27.441Z,21.38
2024-01-19T20:25:28.791Z,19.75
2024-01-19T20:30:30.233Z,21.95
2024-01-19T20:35:31.817Z,21.87
2024-01-19T20:40:33.247Z,19.42
2024-01-19T20:45:34.795Z,21.13
2024-01-19T20:50:36.139Z,16.85
2024-01-19T20:55:39.804Z,19.42
2024-01-19T21:00:41.335Z,19.07
2024-01-19T21:05:43.319Z,17.55
2024-01-19T21:10:45.173Z,19.50
2024-01-19T21:15:46.541Z,19.88
2024-01-19T21:20:47.972Z,18.83
2024-01-19T21:25:49.464Z,18.83
2024-01-19T21:30:50.764Z,18.40
2024-01-19T21:35:53.700Z,18.35
2024-01-19T21:40:57.849Z,17.08
2024-01-19T21:45:59.383Z,16.73
2024-01-19T21:51:00.848Z,18.83
2024-01-19T21:56:03.338Z,19.25
2024-01-19T22:01:04.868Z,17.50
2024-01-19T22:06:06.662Z,19.27
2024-01-19T22:11:08.226Z,18.48
2024-01-19T22:16:09.589Z,17.00
2024-01-19T22:21:10.897Z,19.65
2024-01-19T22:26:12.318Z,23.35
2024-01-19T22:31:13.705Z,22.65
2024-01-19T22:36:19.426Z,21.63
2024-01-19T22:41:21.819Z,19.37
2024-01-19T22:46:24.062Z,16.55
2024-01-19T22:51:26.032Z,16.80
2024-01-19T22:56:28.998Z,17.83
2024-01-19T23:01:30.464Z,17.80
2024-01-19T23:06:31.953Z,16.90
2024-01-19T23:11:33.496Z,16.85
2024-01-19T23:16:34.902Z,17.10
2024-01-19T23:21:36.592Z,15.30
2024-01-19T23:26:39.228Z,15.10
2024-01-19T23:31:41.206Z,15.10
2024-01-19T23:36:43.387Z,14.43
2024-01-19T23:41:45.290Z,16.67
2024-01-19T23:46:46.849Z,15.73
2024-01-19T23:51:48.192Z,18.20
2024-01-19T23:56:49.559Z,13.93
